Time;durP1;ratioP1;P1;durP2;ratioP2;P2;SDS_P1;SDS_P2;PMS_P1;PMS_P2;Temp;Humidity;BMP_temperature;BMP_pressure;BME280_temperature;BME280_humidity;BME280_pressure;Samples;Min_cycle;Max_cycle;Signal;HPM_P1;HPM_P2
2022/07/28 03:03:00;;;;;;;3.13;1.85;;;;;;;16.25;69.52;98511.88;5124402;27;102745;-76
2022/07/28 03:05:29;;;;;;;3.92;1.70;;;;;;;16.36;69.55;98526.00;5106545;27;103854;-76
2022/07/28 03:07:58;;;;;;;1.33;1.23;;;;;;;16.66;68.61;98517.66;5126606;27;103208;-77
2022/07/28 03:10:27;;;;;;;2.63;1.90;;;;;;;16.74;68.55;98513.22;5120718;27;103358;-76
2022/07/28 03:13:05;;;;;;;2.87;1.67;;;;;;;17.10;66.84;98515.81;5100105;27;103104;-76
2022/07/28 03:15:34;;;;;;;2.63;1.83;;;;;;;17.24;66.80;98512.56;5121992;27;103827;-78
2022/07/28 03:18:05;;;;;;;3.80;1.70;;;;;;;17.36;66.37;98512.16;5123984;27;104188;-79
2022/07/28 03:20:33;;;;;;;2.67;1.80;;;;;;;17.39;66.08;98513.69;5125651;27;103344;-81
2022/07/28 03:23:03;;;;;;;3.13;1.80;;;;;;;17.53;65.00;98520.25;5119455;27;102680;-80
2022/07/28 03:25:37;;;;;;;2.10;1.52;;;;;;;17.75;64.40;98520.59;5104257;27;102607;-75
2022/07/28 03:28:08;;;;;;;2.85;1.90;;;;;;;17.66;64.64;98521.53;5101273;27;104088;-78
2022/07/28 03:30:41;;;;;;;2.88;1.90;;;;;;;17.70;64.70;98520.22;5105530;27;103305;-79
2022/07/28 03:33:11;;;;;;;2.23;1.53;;;;;;;17.92;64.40;98527.69;5122880;27;104076;-79
2022/07/28 03:35:43;;;;;;;3.45;2.00;;;;;;;17.93;64.23;98528.53;5128409;27;103627;-76
2022/07/28 03:38:14;;;;;;;3.00;1.75;;;;;;;18.07;64.18;98516.38;5124125;27;103949;-78
2022/07/28 03:40:46;;;;;;;3.15;1.95;;;;;;;17.98;64.08;98520.84;5122321;27;103607;-78
2022/07/28 03:43:16;;;;;;;1.85;1.35;;;;;;;18.19;63.09;98523.09;5129343;27;103760;-79
2022/07/28 03:45:46;;;;;;;1.75;1.58;;;;;;;18.24;63.08;98523.44;5110505;27;102666;-78
2022/07/28 03:48:16;;;;;;;2.25;1.50;;;;;;;18.19;62.97;98523.91;5126303;27;103319;-78
2022/07/28 03:50:44;;;;;;;2.70;1.77;;;;;;;17.81;63.74;98533.31;5124624;27;103260;-78
2022/07/28 03:53:19;;;;;;;2.47;1.58;;;;;;;18.10;62.37;98529.41;5123420;27;103074;-78
2022/07/28 03:55:50;;;;;;;4.28;1.88;;;;;;;18.15;62.39;98527.09;5122988;27;103556;-78
2022/07/28 03:58:19;;;;;;;2.38;1.80;;;;;;;17.99;63.16;98527.03;5125454;27;103757;-78
2022/07/28 04:00:48;;;;;;;1.70;1.50;;;;;;;18.23;62.08;98529.78;5123102;27;103149;-78
2022/07/28 04:03:18;;;;;;;2.05;1.48;;;;;;;18.38;61.19;98525.47;5101895;27;102559;-77
2022/07/28 04:06:03;;;;;;;1.70;1.23;;;;;;;18.49;60.44;98535.91;5121609;27;102882;-78
2022/07/28 04:08:31;;;;;;;1.67;1.42;;;;;;;18.55;60.19;98540.59;5107749;27;103245;-77
2022/07/28 04:11:02;;;;;;;1.85;1.50;;;;;;;18.50;61.01;98537.56;5125517;27;103162;-77
2022/07/28 04:13:31;;;;;;;1.92;1.58;;;;;;;18.44;61.00;98540.88;5110784;27;102979;-77
2022/07/28 04:15:59;;;;;;;3.03;1.77;;;;;;;18.41;61.41;98539.34;5113317;27;102762;-77
2022/07/28 04:18:29;;;;;;;3.67;1.80;;;;;;;18.34;61.76;98542.84;5110242;27;102922;-77
2022/07/28 04:20:56;;;;;;;2.90;1.80;;;;;;;18.43;61.64;98541.88;5092069;27;103163;-77
2022/07/28 04:23:24;;;;;;;2.72;1.90;;;;;;;18.41;62.13;98543.88;5111639;27;103638;-77
2022/07/28 04:25:53;;;;;;;4.90;2.13;;;;;;;18.16;63.57;98542.13;5116374;27;102628;-77
2022/07/28 04:28:24;;;;;;;2.67;1.60;;;;;;;18.41;61.97;98543.88;5092419;27;103888;-77
2022/07/28 04:30:51;;;;;;;1.90;1.40;;;;;;;18.56;61.59;98544.94;5111707;27;103354;-77
2022/07/28 04:33:22;;;;;;;1.57;1.20;;;;;;;18.68;60.78;98546.28;5108565;27;102966;-77
2022/07/28 04:35:52;;;;;;;1.80;1.30;;;;;;;18.73;61.04;98543.09;5112228;27;102688;-78
2022/07/28 04:38:20;;;;;;;2.53;1.60;;;;;;;18.76;61.24;98538.28;5108323;27;104226;-76
2022/07/28 04:40:50;;;;;;;1.67;1.17;;;;;;;18.89;59.90;98538.59;5092970;27;103451;-77
2022/07/28 04:43:18;;;;;;;1.60;1.50;;;;;;;19.00;59.96;98540.94;5109062;27;102976;-78
2022/07/28 04:45:49;;;;;;;2.15;1.23;;;;;;;19.11;59.79;98537.94;5111370;27;102621;-77
2022/07/28 04:48:22;;;;;;;2.90;1.70;;;;;;;19.12;60.07;98533.41;5103920;27;103607;-77
2022/07/28 04:50:52;;;;;;;3.67;1.70;;;;;;;19.07;60.89;98530.41;5108915;27;103204;-77
2022/07/28 04:53:21;;;;;;;3.63;1.70;;;;;;;19.00;59.76;98540.13;5105964;27;102546;-77
2022/07/28 04:55:50;;;;;;;2.40;1.47;;;;;;;19.16;59.25;98524.06;5092553;27;103009;-75
2022/07/28 04:58:20;;;;;;;1.90;1.30;;;;;;;19.20;60.13;98530.72;5103696;27;103347;-75
2022/07/28 05:00:50;;;;;;;4.40;1.80;;;;;;;19.34;59.58;98537.25;5092291;27;103312;-75
2022/07/28 05:03:21;;;;;;;3.90;1.70;;;;;;;19.35;59.50;98544.28;5089412;27;103172;-76
2022/07/28 05:05:49;;;;;;;2.95;1.67;;;;;;;19.40;59.59;98539.25;5083684;27;103704;-75
2022/07/28 05:08:25;;;;;;;2.67;1.58;;;;;;;19.46;59.66;98534.06;4985325;27;104015;-75
2022/07/28 05:10:55;;;;;;;2.75;1.40;;;;;;;19.45;60.18;98536.94;5033015;27;103233;-75
2022/07/28 05:13:23;;;;;;;2.00;1.40;;;;;;;19.49;59.86;98535.56;5011069;27;103045;-75
2022/07/28 05:15:58;;;;;;;2.30;1.50;;;;;;;19.44;59.96;98537.94;5038175;27;104551;-75
2022/07/28 05:18:26;;;;;;;1.50;1.40;;;;;;;19.49;59.13;98535.56;5035591;27;103007;-75
2022/07/28 05:20:54;;;;;;;1.73;1.17;;;;;;;19.60;58.88;98537.88;4995847;27;103223;-75
2022/07/28 05:23:21;;;;;;;4.97;2.03;;;;;;;19.49;60.06;98540.94;5012197;28;103065;-75
2022/07/28 05:25:51;;;;;;;4.70;1.60;;;;;;;19.61;59.00;98542.25;5009063;27;103236;-75
2022/07/28 05:28:19;;;;;;;4.18;2.03;;;;;;;19.39;59.70;98542.97;5010753;28;104206;-75
2022/07/28 05:30:47;;;;;;;2.20;1.50;;;;;;;19.69;57.90;98539.53;5020965;28;103309;-75
2022/07/28 05:33:15;;;;;;;1.98;1.30;;;;;;;19.93;58.03;98542.13;5012744;28;103254;-75
2022/07/28 05:35:45;;;;;;;5.82;2.15;;;;;;;18.43;61.32;98550.75;5014741;28;103056;-76
2022/07/28 05:38:13;;;;;;;4.45;2.10;;;;;;;18.36;61.83;98535.47;5017349;28;103188;-75
2022/07/28 05:40:41;;;;;;;1.92;1.70;;;;;;;19.27;59.50;98541.59;5006762;27;103162;-75
2022/07/28 05:43:10;;;;;;;3.80;2.00;;;;;;;19.46;58.90;98533.22;5026074;27;102988;-75
2022/07/28 05:45:38;;;;;;;3.35;1.98;;;;;;;19.65;58.42;98540.88;5035425;27;102677;-75
2022/07/28 05:48:06;;;;;;;2.78;2.05;;;;;;;19.67;59.34;98538.91;5035263;27;103283;-75
2022/07/28 05:50:35;;;;;;;3.08;1.77;;;;;;;19.79;58.80;98537.50;5032857;27;103536;-75
2022/07/28 05:53:03;;;;;;;4.07;2.20;;;;;;;19.04;61.37;98536.94;5029395;27;102869;-75
2022/07/28 05:55:31;;;;;;;2.58;1.48;;;;;;;19.46;61.17;98541.25;5035049;27;104516;-75
2022/07/28 05:58:00;;;;;;;11.00;2.85;;;;;;;19.77;61.13;98542.19;5030293;27;103235;-75
2022/07/28 06:00:31;;;;;;;8.07;2.38;;;;;;;20.23;58.95;98535.97;5042457;27;103175;-75
2022/07/28 06:03:01;;;;;;;4.07;2.25;;;;;;;20.39;57.71;98540.44;5030150;27;103028;-76
2022/07/28 06:05:32;;;;;;;5.93;2.40;;;;;;;19.75;59.40;98543.38;5047148;27;103083;-77
2022/07/28 06:08:00;;;;;;;4.75;2.22;;;;;;;19.41;60.89;98543.63;5041465;27;103166;-75
2022/07/28 06:10:57;;;;;;;4.73;2.30;;;;;;;19.80;60.57;98541.84;5038275;27;103172;-75
2022/07/28 06:13:19;;;;;;;3.30;2.03;;;;;;;20.47;58.95;98526.97;5031078;27;102835;-75
2022/07/28 06:15:50;;;;;;;2.72;1.73;;;;;;;20.79;57.39;98534.81;5037936;27;103025;-76
2022/07/28 06:18:18;;;;;;;4.43;2.00;;;;;;;20.87;57.55;98539.28;5029568;27;103184;-76
2022/07/28 06:20:46;;;;;;;3.37;2.10;;;;;;;20.80;57.74;98539.16;5035656;27;103273;-76
2022/07/28 06:23:19;;;;;;;4.07;2.72;;;;;;;19.76;60.05;98537.84;5036396;27;103096;-75
2022/07/28 06:25:47;;;;;;;4.50;2.30;;;;;;;20.75;57.55;98532.66;5036915;27;102953;-76
2022/07/28 06:28:17;;;;;;;4.97;2.40;;;;;;;20.37;58.84;98526.38;5032590;27;103255;-76
2022/07/28 06:30:46;;;;;;;6.68;2.35;;;;;;;20.98;56.62;98529.97;5036356;27;103793;-77
2022/07/28 06:33:18;;;;;;;4.93;2.65;;;;;;;20.86;58.74;98526.88;5029473;27;102809;-76
2022/07/28 06:35:46;;;;;;;5.05;2.38;;;;;;;20.69;58.98;98531.53;5032413;27;103108;-76
2022/07/28 06:38:19;;;;;;;3.47;2.45;;;;;;;21.24;56.93;98528.59;5034586;27;103882;-76
2022/07/28 06:40:47;;;;;;;3.47;2.47;;;;;;;21.55;55.30;98530.31;5040350;27;103153;-77
2022/07/28 06:43:15;;;;;;;6.13;2.90;;;;;;;21.02;57.44;98526.75;5034570;27;103209;-77
2022/07/28 06:45:43;;;;;;;3.65;2.90;;;;;;;20.48;58.98;98525.97;5034028;27;104015;-76
2022/07/28 06:48:12;;;;;;;5.50;2.97;;;;;;;20.76;58.58;98537.03;5038529;27;103878;-76
2022/07/28 06:50:42;;;;;;;4.35;2.80;;;;;;;21.39;56.61;98529.44;5034128;27;103211;-76
2022/07/28 06:53:10;;;;;;;5.00;2.73;;;;;;;21.62;55.85;98525.84;5031961;27;102990;-76
2022/07/28 06:55:38;;;;;;;5.65;3.05;;;;;;;21.45;55.96;98537.78;5036116;27;103280;-76
2022/07/28 06:58:08;;;;;;;5.97;3.20;;;;;;;21.19;57.50;98533.66;5035054;27;103466;-76
2022/07/28 07:00:36;;;;;;;5.87;3.37;;;;;;;20.77;58.53;98530.66;5031067;27;103309;-76
2022/07/28 07:03:04;;;;;;;2.75;2.33;;;;;;;21.41;57.03;98536.50;5039646;27;102926;-76
2022/07/28 07:05:36;;;;;;;6.00;3.30;;;;;;;20.42;58.53;98525.84;5036676;27;103215;-77
2022/07/28 07:08:06;;;;;;;6.65;3.35;;;;;;;20.37;59.82;98536.28;5027977;27;104890;-77
2022/07/28 07:10:36;;;;;;;6.45;3.58;;;;;;;20.85;58.74;98525.22;5024335;27;103191;-77
2022/07/28 07:13:04;;;;;;;5.85;3.22;;;;;;;21.45;58.47;98524.34;5033576;27;102877;-80
2022/07/28 07:15:32;;;;;;;4.88;2.80;;;;;;;22.01;56.62;98518.34;5037460;27;102779;-80
2022/07/28 07:18:04;;;;;;;5.17;2.90;;;;;;;22.22;55.38;98515.75;5031138;27;103191;-81
2022/07/28 07:20:32;;;;;;;7.43;4.27;;;;;;;22.48;55.50;98520.59;5040285;27;103959;-80
2022/07/28 07:23:00;;;;;;;4.90;3.33;;;;;;;22.75;55.41;98516.34;5030132;27;102789;-78
2022/07/28 07:25:30;;;;;;;7.13;3.70;;;;;;;22.92;55.58;98502.44;5032953;27;103084;-80
2022/07/28 07:27:58;;;;;;;5.63;3.50;;;;;;;23.26;54.47;98507.06;5030046;27;103752;-76
2022/07/28 07:30:26;;;;;;;3.67;3.30;;;;;;;23.32;54.67;98506.28;5033294;27;103296;-79
2022/07/28 07:32:54;;;;;;;6.57;3.90;;;;;;;22.48;54.91;98516.03;5034341;27;102962;-77
2022/07/28 07:35:22;;;;;;;4.95;3.75;;;;;;;22.82;55.52;98510.00;5039471;27;103943;-78
2022/07/28 07:37:50;;;;;;;5.13;4.00;;;;;;;22.31;55.07;98509.25;5032597;27;103271;-80
2022/07/28 07:40:19;;;;;;;6.15;3.85;;;;;;;23.52;54.33;98503.78;5035965;27;103551;-81
2022/07/28 07:42:48;;;;;;;6.53;4.33;;;;;;;22.58;54.37;98512.19;5034160;27;103151;-84
2022/07/28 07:45:16;;;;;;;5.33;3.70;;;;;;;23.58;53.31;98502.97;5036072;27;104064;-78
2022/07/28 07:47:44;;;;;;;4.70;4.07;;;;;;;22.95;54.04;98504.75;5037368;27;104694;-82
2022/07/28 07:50:12;;;;;;;4.70;4.20;;;;;;;23.43;53.97;98495.00;5036723;27;103538;-83
2022/07/28 07:52:40;;;;;;;6.57;4.40;;;;;;;22.89;55.53;98512.75;5037896;27;102709;-80
2022/07/28 07:55:10;;;;;;;5.20;4.15;;;;;;;22.99;56.31;98508.69;5040981;27;104464;-82
2022/07/28 07:57:38;;;;;;;6.90;4.20;;;;;;;24.37;52.43;98504.19;5040182;27;103220;-84
2022/07/28 08:00:12;;;;;;;4.93;4.40;;;;;;;23.05;54.92;98507.09;5035707;27;103367;-84
2022/07/28 08:02:56;;;;;;;5.25;4.05;;;;;;;23.71;54.70;98507.63;5044075;27;103814;-85
2022/07/28 08:05:24;;;;;;;7.53;4.63;;;;;;;23.63;53.99;98506.72;5038082;27;104279;-76
2022/07/28 08:08:05;;;;;;;6.03;4.30;;;;;;;25.03;51.31;98501.66;5043487;27;103480;-82
2022/07/28 08:10:33;;;;;;;5.93;4.13;;;;;;;25.61;50.08;98498.13;5037071;27;103279;-86
2022/07/28 08:13:01;;;;;;;5.55;4.10;;;;;;;26.07;49.58;98499.88;5034109;27;102658;-80
2022/07/28 08:15:32;;;;;;;5.80;3.90;;;;;;;26.53;49.18;98486.94;5032775;27;103414;-84
2022/07/28 08:18:03;;;;;;;5.88;4.32;;;;;;;26.94;47.43;98487.34;5031254;27;103882;-81
2022/07/28 08:20:31;;;;;;;4.63;4.15;;;;;;;27.30;46.98;98493.94;5037950;27;103870;-77
2022/07/28 08:23:00;;;;;;;4.43;4.03;;;;;;;27.66;47.03;98491.31;5031692;27;102852;-82
2022/07/28 08:25:28;;;;;;;5.35;4.20;;;;;;;27.92;47.18;98488.31;5032523;27;103134;-83
2022/07/28 08:27:56;;;;;;;5.47;4.63;;;;;;;27.12;47.44;98491.19;5033711;27;103857;-80
2022/07/28 08:30:27;;;;;;;6.20;4.87;;;;;;;26.84;47.73;98489.69;5031576;27;103157;-81
2022/07/28 08:33:01;;;;;;;4.73;4.33;;;;;;;27.15;47.88;98480.69;5040648;27;103124;-81
2022/07/28 08:35:29;;;;;;;5.00;4.50;;;;;;;27.20;47.38;98483.56;5039811;27;103052;-82
2022/07/28 08:38:03;;;;;;;4.75;4.35;;;;;;;27.62;45.86;98481.97;5038000;27;103159;-82
2022/07/28 08:40:32;;;;;;;7.95;4.15;;;;;;;28.01;46.68;98481.53;5034837;27;103246;-80
2022/07/28 08:43:15;;;;;;;4.70;4.30;;;;;;;28.97;44.86;98476.03;5030959;27;103039;-76
2022/07/28 08:45:47;;;;;;;6.07;4.23;;;;;;;29.40;44.29;98480.38;5033375;27;103041;-74
2022/07/28 08:48:18;;;;;;;5.80;4.40;;;;;;;29.69;43.74;98479.44;5029783;27;103960;-74
2022/07/28 08:50:47;;;;;;;6.30;4.80;;;;;;;28.13;44.73;98476.19;4994904;27;103715;-75
2022/07/28 08:53:16;;;;;;;5.65;4.50;;;;;;;28.89;46.42;98481.81;5034576;27;102870;-78
2022/07/28 08:55:44;;;;;;;6.38;4.63;;;;;;;29.62;43.25;98470.56;5033294;27;103689;-84
2022/07/28 08:58:13;;;;;;;4.90;4.05;;;;;;;29.68;43.67;98469.59;5039752;27;103170;-79
2022/07/28 09:00:42;;;;;;;4.40;4.00;;;;;;;30.27;42.71;98454.81;5031091;27;103155;-78
2022/07/28 09:03:12;;;;;;;5.22;3.78;;;;;;;30.65;42.90;98467.84;5038714;27;102848;-79
2022/07/28 09:05:45;;;;;;;5.47;4.03;;;;;;;30.68;41.91;98462.72;5041768;27;104209;-77
2022/07/28 09:08:16;;;;;;;5.22;3.70;;;;;;;31.05;42.62;98463.13;5036580;27;103980;-76
2022/07/28 09:10:44;;;;;;;6.20;4.00;;;;;;;31.62;41.35;98454.75;5048282;27;103383;-76
2022/07/28 09:13:15;;;;;;;5.40;4.00;;;;;;;30.01;41.95;98458.91;5055395;27;102674;-75
2022/07/28 09:15:44;;;;;;;5.03;4.50;;;;;;;29.23;44.30;98462.06;5046855;27;103407;-76
2022/07/28 09:18:13;;;;;;;4.83;4.33;;;;;;;30.20;41.82;98459.59;5044617;27;103220;-77
2022/07/28 09:20:43;;;;;;;5.13;4.07;;;;;;;29.85;42.88;98462.41;5043719;27;103284;-76
2022/07/28 09:23:13;;;;;;;5.20;3.93;;;;;;;29.79;43.00;98458.72;5033661;27;102901;-77
2022/07/28 09:26:07;;;;;;;5.33;4.57;;;;;;;28.77;44.96;98456.53;4997482;27;103842;-76
2022/07/28 09:28:48;;;;;;;4.72;4.30;;;;;;;27.70;46.66;98451.84;5033057;27;104139;-77
2022/07/28 09:31:16;;;;;;;4.50;4.10;;;;;;;30.36;43.16;98448.75;5030772;27;103215;-76
2022/07/28 09:34:00;;;;;;;4.40;4.10;;;;;;;28.24;45.50;98448.25;5029504;27;103186;-79
2022/07/28 09:36:28;;;;;;;4.72;4.15;;;;;;;29.43;43.09;98437.22;5036242;27;102888;-77
2022/07/28 09:38:58;;;;;;;4.43;4.03;;;;;;;30.92;43.56;98431.56;5033395;27;103239;-78
2022/07/28 09:41:26;;;;;;;5.82;4.72;;;;;;;30.19;41.77;98439.69;5040568;27;103119;-75
2022/07/28 09:43:53;;;;;;;5.47;4.00;;;;;;;30.06;42.13;98442.72;5041424;27;102725;-77
2022/07/28 09:46:24;;;;;;;8.57;4.70;;;;;;;30.71;41.35;98436.88;5032107;27;103012;-77
2022/07/28 09:48:56;;;;;;;6.03;4.60;;;;;;;30.58;41.01;98439.91;5037543;27;103966;-74
2022/07/28 09:51:29;;;;;;;5.85;4.47;;;;;;;30.49;41.61;98427.75;5029016;27;103438;-73
2022/07/28 09:54:09;;;;;;;5.57;4.43;;;;;;;31.76;41.26;98426.84;5031379;27;102802;-74
2022/07/28 09:56:39;;;;;;;5.10;3.97;;;;;;;32.20;40.03;98429.59;5035343;27;102773;-75
2022/07/28 09:59:08;;;;;;;6.78;4.43;;;;;;;32.85;39.70;98418.50;5032263;27;103202;-74
2022/07/28 10:01:51;;;;;;;5.95;4.40;;;;;;;31.19;40.16;98425.41;5052182;27;103642;-74
2022/07/28 10:04:30;;;;;;;4.37;3.90;;;;;;;32.59;39.54;98415.56;5035277;27;104004;-75
2022/07/28 10:07:08;;;;;;;4.30;3.60;;;;;;;32.92;38.21;98419.13;5032234;27;103829;-74
2022/07/28 10:09:38;;;;;;;4.67;4.23;;;;;;;30.79;41.45;98420.94;5030245;27;103343;-73
2022/07/28 10:12:15;;;;;;;3.83;3.53;;;;;;;32.72;38.60;98413.50;5032809;27;103104;-73
2022/07/28 10:14:45;;;;;;;4.60;4.13;;;;;;;32.63;38.80;98405.75;5032601;27;103674;-74
2022/07/28 10:17:23;;;;;;;5.35;4.13;;;;;;;33.29;37.91;98400.84;5031457;27;102881;-74
2022/07/28 10:19:53;;;;;;;4.10;3.70;;;;;;;33.64;36.95;98401.06;5034896;27;103252;-77
2022/07/28 10:22:24;;;;;;;7.80;5.05;;;;;;;31.54;39.87;98395.97;5033262;27;103137;-77
2022/07/28 10:24:56;;;;;;;6.35;3.97;;;;;;;31.79;40.15;98400.94;5034377;27;102799;-78
2022/07/28 10:27:25;;;;;;;5.25;4.40;;;;;;;31.01;40.17;98393.78;5028362;27;102862;-77
2022/07/28 10:29:57;;;;;;;4.57;3.95;;;;;;;30.93;40.98;98396.94;5031937;27;103114;-76
2022/07/28 10:32:28;;;;;;;4.45;4.00;;;;;;;31.07;40.60;98391.97;5029986;27;103496;-77
2022/07/28 10:35:01;;;;;;;4.38;3.97;;;;;;;29.76;41.14;98395.75;5034725;27;102839;-75
2022/07/28 10:37:31;;;;;;;4.38;3.97;;;;;;;30.30;41.66;98399.84;5039023;27;102812;-75
2022/07/28 10:40:05;;;;;;;4.70;4.10;;;;;;;30.46;40.64;98395.56;5025942;27;104157;-75
2022/07/28 10:42:39;;;;;;;4.53;4.00;;;;;;;29.51;42.83;98389.75;5036042;27;103869;-75
2022/07/28 10:45:09;;;;;;;4.65;4.25;;;;;;;30.60;42.16;98378.63;5033681;27;103086;-76
2022/07/28 10:47:38;;;;;;;4.43;3.60;;;;;;;31.55;40.49;98382.06;5037453;27;102800;-82
2022/07/28 10:50:07;;;;;;;5.50;3.80;;;;;;;31.16;39.74;98372.19;5036435;27;102778;-80
2022/07/28 10:52:37;;;;;;;4.13;3.73;;;;;;;30.37;40.93;98379.56;5040900;27;102822;-83
2022/07/28 10:55:29;;;;;;;5.07;4.00;;;;;;;30.69;40.50;98376.31;5039504;27;102833;-87
2022/07/28 10:58:06;;;;;;;5.30;4.10;;;;;;;31.05;40.09;98381.28;5036535;27;102567;-80
2022/07/28 11:00:46;;;;;;;4.47;4.07;;;;;;;29.93;42.72;98372.16;5030241;27;102975;-84
2022/07/28 11:03:41;;;;;;;4.80;4.05;;;;;;;30.80;43.11;98375.41;5038718;27;103627;-84
2022/07/28 11:06:27;;;;;;;6.03;4.45;;;;;;;29.16;42.73;98381.63;5037723;27;102838;-75
2022/07/28 11:08:55;;;;;;;6.03;4.05;;;;;;;30.52;40.24;98379.03;5027768;27;104370;-81
2022/07/28 11:11:48;;;;;;;3.53;3.22;;;;;;;32.30;38.86;98367.69;5034832;27;103235;-80
2022/07/28 11:14:34;;;;;;;4.35;3.70;;;;;;;31.07;39.06;98370.16;5031633;27;103295;-83
2022/07/28 11:17:19;;;;;;;7.50;4.17;;;;;;;30.22;39.90;98365.66;5042474;27;103663;-78
2022/07/28 11:20:01;;;;;;;4.85;3.85;;;;;;;29.95;41.29;98370.06;5034250;27;103361;-78
2022/07/28 11:22:50;;;;;;;5.50;3.90;;;;;;;29.48;41.71;98346.69;5030361;27;104351;-76
2022/07/28 11:25:19;;;;;;;4.20;3.80;;;;;;;29.06;42.82;98354.16;5041190;27;103360;-75
2022/07/28 11:28:06;;;;;;;6.03;3.87;;;;;;;29.80;41.04;98358.84;5044988;27;103060;-74
2022/07/28 11:30:53;;;;;;;4.30;3.90;;;;;;;30.62;38.44;98359.31;5036415;27;104007;-75
2022/07/28 11:33:23;;;;;;;4.15;3.60;;;;;;;30.16;38.71;98363.91;5038800;27;103201;-75
2022/07/28 11:35:59;;;;;;;4.13;3.50;;;;;;;30.27;39.35;98351.28;5057665;27;103334;-76
2022/07/28 11:38:29;;;;;;;3.85;3.38;;;;;;;30.29;40.63;98357.31;5051974;27;102401;-76
2022/07/28 11:40:57;;;;;;;9.43;3.92;;;;;;;31.09;38.11;98363.38;5040931;27;102534;-76
2022/07/28 11:43:38;;;;;;;4.20;3.80;;;;;;;31.15;38.17;98364.25;5035944;27;103316;-76
2022/07/28 11:46:38;;;;;;;5.00;4.00;;;;;;;30.62;39.30;98354.69;5033137;27;103119;-76
2022/07/28 11:49:27;;;;;;;5.00;4.15;;;;;;;31.58;39.07;98354.25;5036615;27;102950;-75
2022/07/28 11:52:22;;;;;;;4.28;3.88;;;;;;;31.34;38.70;98358.28;5032680;27;103090;-76
2022/07/28 11:54:55;;;;;;;4.93;3.90;;;;;;;31.34;37.80;98352.81;5035803;27;103155;-74
2022/07/28 11:57:25;;;;;;;5.47;4.00;;;;;;;31.06;38.02;98344.75;5033113;27;103207;-77
2022/07/28 12:00:00;;;;;;;4.35;3.95;;;;;;;31.88;37.38;98348.34;5035870;27;103260;-77
2022/07/28 12:02:34;;;;;;;4.38;3.97;;;;;;;31.97;37.53;98340.53;5037806;27;102904;-77
2022/07/28 12:05:10;;;;;;;4.75;4.30;;;;;;;30.17;39.98;98338.34;5033669;27;103476;-77
2022/07/28 12:07:41;;;;;;;4.60;4.03;;;;;;;30.65;39.95;98337.84;5032252;27;103155;-78
2022/07/28 12:10:39;;;;;;;5.97;4.10;;;;;;;31.38;38.35;98343.03;5033033;27;103006;-78
2022/07/28 12:13:27;;;;;;;6.15;4.07;;;;;;;31.29;39.43;98343.72;5033347;27;103071;-79
2022/07/28 12:15:56;;;;;;;7.40;4.03;;;;;;;31.28;38.13;98328.44;5042561;27;103976;-77
2022/07/28 12:18:25;;;;;;;3.37;3.07;;;;;;;33.03;36.93;98322.38;5041329;27;103273;-78
2022/07/28 12:20:54;;;;;;;4.10;3.70;;;;;;;33.68;35.80;98320.03;5040896;27;102570;-78
2022/07/28 12:23:30;;;;;;;4.30;3.85;;;;;;;33.19;35.81;98313.19;5035921;27;102876;-78
2022/07/28 12:26:29;;;;;;;4.30;3.90;;;;;;;32.87;36.53;98328.84;5040396;27;103258;-79
2022/07/28 12:29:01;;;;;;;5.07;3.60;;;;;;;32.78;35.41;98322.19;5034202;27;103617;-79
2022/07/28 12:31:36;;;;;;;4.60;4.03;;;;;;;31.19;37.69;98328.03;5035367;27;103174;-77
2022/07/28 12:34:06;;;;;;;5.10;3.47;;;;;;;32.15;37.45;98321.06;5041159;27;102746;-79
2022/07/28 12:36:34;;;;;;;3.90;3.50;;;;;;;31.84;36.99;98313.59;5037759;27;103309;-81
2022/07/28 12:39:02;;;;;;;4.65;3.78;;;;;;;31.81;36.90;98309.47;5033299;27;104120;-79
2022/07/28 12:41:33;;;;;;;3.88;3.58;;;;;;;30.41;39.19;98317.25;5033642;27;102871;-79
2022/07/28 12:44:03;;;;;;;3.63;3.33;;;;;;;31.75;36.68;98318.69;5040826;27;103268;-81
2022/07/28 12:46:33;;;;;;;3.75;3.28;;;;;;;32.32;35.67;98310.84;5035958;27;103940;-78
2022/07/28 12:49:05;;;;;;;4.03;3.70;;;;;;;31.49;35.28;98317.56;5030717;27;103362;-80
2022/07/28 12:51:34;;;;;;;4.05;3.28;;;;;;;31.69;34.84;98314.28;5034302;27;103148;-77
2022/07/28 12:54:03;;;;;;;4.90;3.50;;;;;;;32.06;34.75;98311.69;5036051;27;102780;-78
2022/07/28 12:56:32;;;;;;;3.60;3.30;;;;;;;32.25;34.53;98315.72;5035617;27;103216;-78
2022/07/28 12:59:08;;;;;;;3.93;3.10;;;;;;;32.13;34.35;98302.22;5045843;27;102945;-78
2022/07/28 13:01:47;;;;;;;3.40;3.10;;;;;;;32.44;34.82;98297.84;5039054;27;103234;-78
2022/07/28 13:04:36;;;;;;;4.03;3.25;;;;;;;33.12;33.74;98296.19;5037513;27;103179;-77
2022/07/28 13:07:08;;;;;;;3.17;2.78;;;;;;;32.77;35.21;98295.94;5035870;27;103447;-79
2022/07/28 13:09:38;;;;;;;5.25;3.20;;;;;;;33.25;33.89;98298.44;5036583;27;103216;-77
2022/07/28 13:12:15;;;;;;;5.70;3.17;;;;;;;33.54;34.23;98296.13;5042267;27;102677;-79
2022/07/28 13:14:44;;;;;;;3.23;2.93;;;;;;;33.55;34.19;98295.84;5039355;27;102953;-78
2022/07/28 13:17:13;;;;;;;5.20;3.40;;;;;;;32.07;34.06;98294.22;5036655;27;103032;-78
2022/07/28 13:19:44;;;;;;;6.35;3.30;;;;;;;32.46;33.96;98292.94;5041571;27;103594;-80
2022/07/28 13:22:12;;;;;;;4.17;3.63;;;;;;;32.31;34.01;98281.84;5042888;27;103097;-80
2022/07/28 13:24:40;;;;;;;4.37;3.60;;;;;;;32.05;34.18;98280.81;5036167;27;102557;-79
2022/07/28 13:27:08;;;;;;;5.25;3.35;;;;;;;32.60;34.18;98283.25;5035938;27;103889;-78
2022/07/28 13:29:35;;;;;;;6.18;3.55;;;;;;;31.42;35.66;98283.31;5035533;27;103416;-78
2022/07/28 13:32:03;;;;;;;4.15;3.17;;;;;;;32.88;34.72;98281.22;5044472;27;102750;-79
2022/07/28 13:34:34;;;;;;;4.90;3.33;;;;;;;32.88;35.20;98281.22;5039941;27;104060;-78
2022/07/28 13:37:03;;;;;;;3.90;2.90;;;;;;;33.07;34.03;98282.47;5038539;27;103355;-79
2022/07/28 13:39:31;;;;;;;3.45;2.90;;;;;;;33.59;33.01;98283.31;5031757;27;103128;-78
2022/07/28 13:41:59;;;;;;;4.85;3.45;;;;;;;31.97;34.57;98264.03;5033428;27;102944;-77
2022/07/28 13:44:34;;;;;;;4.55;3.00;;;;;;;32.37;34.71;98269.06;5042253;27;102992;-78
2022/07/28 13:47:03;;;;;;;3.88;3.10;;;;;;;32.09;34.25;98267.44;5039978;27;103420;-77
2022/07/28 13:49:36;;;;;;;3.60;3.30;;;;;;;32.78;34.07;98264.75;5042535;27;103106;-77
2022/07/28 13:52:08;;;;;;;3.10;2.90;;;;;;;32.84;33.58;98266.44;5041451;27;102590;-76
2022/07/28 13:54:40;;;;;;;6.40;3.30;;;;;;;31.13;34.71;98266.28;5046856;27;103253;-77
2022/07/28 13:57:08;;;;;;;5.47;3.30;;;;;;;31.41;35.88;98265.31;5036121;27;104215;-77
2022/07/28 13:59:37;;;;;;;4.80;3.30;;;;;;;31.40;35.31;98269.94;5034217;27;104560;-77
2022/07/28 14:02:07;;;;;;;3.80;3.33;;;;;;;32.03;34.57;98252.09;5039560;27;103157;-76
2022/07/28 14:04:46;;;;;;;3.30;3.00;;;;;;;30.93;35.80;98264.13;5038020;27;102783;-77
2022/07/28 14:07:19;;;;;;;3.73;3.10;;;;;;;31.96;34.71;98257.75;5036669;27;103210;-77
2022/07/28 14:09:50;;;;;;;4.55;3.20;;;;;;;30.87;35.65;98265.13;5034414;27;103171;-77
2022/07/28 14:12:19;;;;;;;3.22;2.92;;;;;;;31.53;35.28;98264.09;5037084;27;102835;-76
2022/07/28 14:14:47;;;;;;;4.18;3.17;;;;;;;32.31;34.13;98243.59;5032092;27;103047;-77
2022/07/28 14:17:21;;;;;;;3.75;3.10;;;;;;;32.21;33.90;98237.22;5035910;27;103303;-76
2022/07/28 14:20:12;;;;;;;3.42;3.05;;;;;;;32.89;33.74;98237.22;5029045;27;103232;-75
2022/07/28 14:22:42;;;;;;;3.50;3.20;;;;;;;32.16;33.40;98232.56;5039701;27;102753;-75
2022/07/28 14:25:12;;;;;;;3.70;3.27;;;;;;;32.43;33.53;98225.13;5033559;27;103989;-75
2022/07/28 14:27:49;;;;;;;3.90;3.13;;;;;;;33.02;33.72;98227.69;5025866;27;104023;-76
2022/07/28 14:30:18;;;;;;;6.73;3.33;;;;;;;32.62;33.84;98226.38;5033113;27;104615;-73
2022/07/28 14:32:48;;;;;;;4.20;3.60;;;;;;;31.95;33.91;98217.84;5032959;27;102900;-81
2022/07/28 14:35:16;;;;;;;3.80;3.42;;;;;;;31.11;35.23;98227.53;5038554;27;104010;-77
2022/07/28 14:37:46;;;;;;;3.88;3.00;;;;;;;30.91;35.32;98229.97;5029933;27;104200;-78
2022/07/28 14:40:34;;;;;;;3.33;3.13;;;;;;;32.13;34.51;98214.78;5032166;27;103615;-80
2022/07/28 14:43:06;;;;;;;5.35;3.35;;;;;;;32.02;34.22;98220.41;5036039;27;102837;-78
2022/07/28 14:45:35;;;;;;;4.57;3.30;;;;;;;31.15;34.32;98206.03;5047755;27;103091;-78
2022/07/28 14:48:22;;;;;;;4.43;3.30;;;;;;;31.48;34.87;98217.66;5042175;27;103233;-76